createdAt,value
2018-08-12T00:02:03.077Z,16.10
2018-08-12T00:06:57.760Z,15.90
2018-08-12T00:11:52.482Z,16.00
2018-08-12T00:16:47.207Z,16.10
2018-08-12T00:21:42.557Z,15.90
2018-08-12T00:26:37.195Z,16.00
2018-08-12T00:31:31.807Z,15.80
2018-08-12T00:36:26.488Z,15.80
2018-08-12T00:41:21.146Z,15.70
2018-08-12T00:46:15.838Z,15.80
2018-08-12T00:51:10.518Z,15.60
2018-08-12T00:56:05.258Z,15.70
2018-08-12T01:00:59.970Z,15.40
2018-08-12T01:05:54.696Z,15.30
2018-08-12T01:10:49.418Z,15.30
2018-08-12T01:15:44.075Z,15.50
2018-08-12T01:20:38.870Z,15.30
2018-08-12T01:25:33.607Z,15.30
2018-08-12T01:30:28.353Z,15.20
2018-08-12T01:35:23.326Z,15.10
2018-08-12T01:40:18.842Z,15.00
2018-08-12T01:50:00.376Z,15.10
2018-08-12T01:54:55.287Z,14.90
2018-08-12T01:59:49.933Z,14.90
2018-08-12T02:04:44.595Z,14.90
2018-08-12T02:09:39.239Z,14.80
2018-08-12T02:14:33.897Z,14.70
2018-08-12T02:19:28.535Z,14.50
2018-08-12T02:24:23.215Z,14.70
2018-08-12T02:29:17.889Z,14.60
2018-08-12T02:34:12.616Z,14.50
2018-08-12T02:39:10.608Z,14.50
2018-08-12T02:44:05.635Z,14.50
2018-08-12T02:49:00.296Z,14.40
2018-08-12T02:53:54.991Z,14.30
2018-08-12T02:58:49.670Z,14.20
2018-08-12T03:03:44.590Z,14.30
2018-08-12T03:08:39.178Z,14.00
2018-08-12T03:13:33.868Z,14.20
2018-08-12T03:18:28.533Z,14.30
2018-08-12T03:23:23.208Z,14.10
2018-08-12T03:28:17.891Z,14.10
2018-08-12T03:33:12.544Z,14.00
2018-08-12T03:38:07.667Z,13.90
2018-08-12T03:43:02.297Z,13.90
2018-08-12T03:47:57.286Z,13.80
2018-08-12T03:52:52.010Z,13.80
2018-08-12T03:57:46.716Z,13.80
2018-08-12T04:02:41.437Z,13.80
2018-08-12T04:07:36.089Z,13.80
2018-08-12T04:12:30.799Z,13.70
2018-08-12T04:17:25.461Z,13.70
2018-08-12T04:22:20.080Z,13.70
2018-08-12T04:27:14.707Z,13.80
2018-08-12T04:32:09.875Z,13.70
2018-08-12T04:37:04.517Z,13.60
2018-08-12T04:41:59.244Z,13.60
2018-08-12T04:46:53.856Z,13.50
2018-08-12T04:51:48.497Z,13.50
2018-08-12T04:56:43.162Z,13.80
2018-08-12T05:01:37.811Z,14.30
2018-08-12T05:06:32.582Z,14.80
2018-08-12T05:11:27.377Z,15.10
2018-08-12T05:16:22.115Z,15.30
2018-08-12T05:21:16.737Z,15.40
2018-08-12T05:26:11.399Z,15.70
2018-08-12T05:31:06.225Z,15.90
2018-08-12T05:36:00.797Z,16.00
2018-08-12T05:40:55.423Z,16.00
2018-08-12T05:45:50.031Z,16.10
2018-08-12T05:50:44.680Z,16.10
2018-08-12T05:55:39.396Z,16.10
2018-08-12T06:00:34.057Z,16.20
2018-08-12T06:05:28.719Z,16.20
2018-08-12T06:10:23.393Z,16.30
2018-08-12T06:15:18.956Z,16.20
2018-08-12T06:20:13.970Z,16.30
2018-08-12T06:25:10.025Z,16.30
2018-08-12T06:30:07.963Z,16.50
2018-08-12T06:35:03.255Z,16.50
2018-08-12T06:39:57.963Z,16.60
2018-08-12T06:44:52.619Z,16.80
2018-08-12T06:49:47.269Z,16.80
2018-08-12T06:54:41.987Z,17.10
2018-08-12T06:59:36.649Z,17.30
2018-08-12T07:04:31.316Z,17.60
2018-08-12T07:09:26.250Z,17.80
2018-08-12T07:14:20.922Z,17.90
2018-08-12T07:19:15.708Z,18.20
2018-08-12T07:24:10.384Z,18.60
2018-08-12T07:29:05.097Z,18.80
2018-08-12T07:33:59.865Z,19.20
2018-08-12T07:38:54.723Z,19.60
2018-08-12T07:43:49.411Z,20.00
2018-08-12T07:48:44.094Z,20.50
2018-08-12T07:53:38.792Z,20.80
2018-08-12T07:58:33.469Z,21.00
2018-08-12T08:03:28.209Z,21.20
2018-08-12T08:08:23.020Z,21.50
2018-08-12T08:13:17.881Z,21.40
2018-08-12T08:18:14.080Z,21.70
2018-08-12T08:23:08.781Z,21.90
2018-08-12T08:28:03.632Z,22.30
2018-08-12T08:32:58.383Z,22.30
2018-08-12T08:37:53.142Z,22.40
2018-08-12T08:42:47.971Z,22.80
2018-08-12T08:47:43.620Z,22.80
2018-08-12T08:52:38.931Z,22.70
2018-08-12T08:57:33.712Z,23.10
2018-08-12T09:02:28.623Z,23.30
2018-08-12T09:07:23.290Z,23.70
2018-08-12T09:12:17.948Z,24.00
2018-08-12T09:17:12.702Z,24.20
2018-08-12T09:22:07.363Z,24.20
2018-08-12T09:27:02.182Z,24.20
2018-08-12T09:31:56.943Z,24.40
2018-08-12T09:36:51.800Z,24.60
2018-08-12T09:41:46.461Z,24.90
2018-08-12T09:46:41.472Z,25.00
2018-08-12T09:51:36.503Z,24.60
2018-08-12T09:56:31.364Z,24.90
2018-08-12T10:01:26.857Z,25.30
2018-08-12T10:06:21.651Z,25.20
2018-08-12T10:11:16.404Z,25.30
2018-08-12T10:16:11.195Z,25.50
2018-08-12T10:21:06.010Z,25.60
2018-08-12T10:26:00.630Z,25.50
2018-08-12T10:30:55.327Z,25.80
2018-08-12T10:35:50.018Z,25.80
2018-08-12T10:40:44.705Z,25.80
2018-08-12T10:45:39.476Z,25.90
2018-08-12T10:50:34.223Z,25.90
2018-08-12T10:55:29.353Z,25.90
2018-08-12T11:00:26.810Z,26.10
2018-08-12T11:05:21.556Z,26.20
2018-08-12T11:10:16.623Z,26.30
2018-08-12T11:15:11.522Z,26.50
2018-08-12T11:20:06.899Z,26.60
2018-08-12T11:25:01.523Z,26.80
2018-08-12T11:29:56.281Z,27.10
2018-08-12T11:34:50.981Z,27.20
2018-08-12T11:39:45.534Z,27.20
2018-08-12T11:44:40.275Z,27.20
2018-08-12T11:49:34.895Z,27.40
2018-08-12T11:54:29.747Z,27.40
2018-08-12T11:59:24.408Z,27.10
2018-08-12T12:04:20.113Z,27.30
2018-08-12T12:09:14.699Z,27.30
2018-08-12T12:14:09.367Z,27.40
2018-08-12T12:19:04.250Z,27.50
2018-08-12T12:23:58.988Z,27.50
2018-08-12T12:28:53.658Z,27.30
2018-08-12T12:33:48.367Z,27.40
2018-08-12T12:38:43.046Z,27.40
2018-08-12T12:43:37.629Z,27.20
2018-08-12T12:48:32.347Z,27.30
2018-08-12T12:53:27.057Z,27.20
2018-08-12T12:58:21.673Z,27.00
2018-08-12T13:03:16.303Z,26.70
2018-08-12T13:08:10.949Z,26.70
2018-08-12T13:13:05.595Z,26.50
2018-08-12T13:18:00.233Z,26.50
2018-08-12T13:22:54.858Z,26.50
2018-08-12T13:27:49.491Z,26.70
2018-08-12T13:32:45.147Z,26.70
2018-08-12T13:37:39.798Z,26.70
2018-08-12T13:42:34.511Z,26.50
2018-08-12T13:47:29.474Z,26.30
2018-08-12T13:52:24.145Z,26.30
2018-08-12T13:57:18.804Z,26.40
2018-08-12T14:02:13.859Z,26.50
2018-08-12T14:07:08.597Z,26.50
2018-08-12T14:12:03.267Z,26.60
2018-08-12T14:16:58.100Z,26.60
2018-08-12T14:21:52.826Z,26.50
2018-08-12T14:26:47.514Z,26.50
2018-08-12T14:31:42.142Z,26.40
2018-08-12T14:36:36.823Z,26.30
2018-08-12T14:41:31.534Z,26.30
2018-08-12T14:46:29.242Z,26.40
2018-08-12T14:51:23.904Z,26.40
2018-08-12T14:56:18.610Z,26.40
2018-08-12T15:01:13.260Z,26.40
2018-08-12T15:06:07.998Z,26.60
2018-08-12T15:11:02.767Z,26.70
2018-08-12T15:15:57.380Z,26.80
2018-08-12T15:20:52.010Z,26.90
2018-08-12T15:25:46.665Z,26.80
2018-08-12T15:30:41.300Z,26.70
2018-08-12T15:35:35.982Z,26.60
2018-08-12T15:40:30.652Z,26.40
2018-08-12T15:50:27.231Z,26.50
2018-08-12T15:55:21.989Z,26.60
2018-08-12T16:00:20.491Z,26.70
2018-08-12T16:05:15.230Z,26.70
2018-08-12T16:10:17.986Z,26.50
2018-08-12T16:15:13.194Z,26.60
2018-08-12T16:20:08.739Z,26.60
2018-08-12T16:25:03.451Z,26.70
2018-08-12T16:29:58.145Z,26.60
2018-08-12T16:34:52.747Z,26.50
2018-08-12T16:39:47.369Z,26.50
2018-08-12T16:44:42.011Z,26.50
2018-08-12T16:49:36.612Z,26.40
2018-08-12T16:54:31.212Z,26.40
2018-08-12T16:59:25.837Z,26.40
2018-08-12T17:04:20.785Z,26.30
2018-08-12T17:09:15.288Z,26.20
2018-08-12T17:14:09.958Z,26.20
2018-08-12T17:19:04.662Z,26.20
2018-08-12T17:23:59.305Z,26.20
2018-08-12T17:28:54.217Z,26.30
2018-08-12T17:33:48.858Z,26.20
2018-08-12T17:38:43.475Z,26.10
2018-08-12T17:43:38.119Z,26.00
2018-08-12T17:48:32.770Z,26.00
2018-08-12T17:53:27.436Z,25.90
2018-08-12T17:58:22.496Z,25.80
2018-08-12T18:03:17.283Z,25.70
2018-08-12T18:08:12.036Z,25.60
2018-08-12T18:13:06.689Z,25.40
2018-08-12T18:18:01.536Z,25.30
2018-08-12T18:22:56.250Z,25.20
2018-08-12T18:27:51.830Z,25.00
2018-08-12T18:32:46.588Z,24.80
2018-08-12T18:37:41.616Z,24.60
2018-08-12T18:42:36.619Z,24.40
2018-08-12T18:47:31.395Z,24.30
2018-08-12T18:52:26.608Z,24.10
2018-08-12T18:57:22.332Z,23.80
2018-08-12T19:02:17.090Z,23.50
2018-08-12T19:07:12.753Z,23.50
2018-08-12T19:12:08.876Z,23.30
2018-08-12T19:17:04.791Z,23.20
2018-08-12T19:21:59.592Z,23.10
2018-08-12T19:26:54.448Z,22.90
2018-08-12T19:31:49.067Z,22.70
2018-08-12T19:36:43.838Z,22.60
2018-08-12T19:41:38.468Z,22.60
2018-08-12T19:46:33.223Z,22.50
2018-08-12T19:51:27.817Z,22.30
2018-08-12T19:56:22.378Z,22.20
2018-08-12T20:01:17.019Z,22.20
2018-08-12T20:06:11.701Z,22.20
2018-08-12T20:11:06.350Z,22.10
2018-08-12T20:16:00.977Z,21.90
2018-08-12T20:20:55.631Z,21.80
2018-08-12T20:25:50.278Z,21.80
2018-08-12T20:30:44.913Z,21.70
2018-08-12T20:35:39.536Z,21.60
2018-08-12T20:40:34.230Z,21.40
2018-08-12T20:45:28.932Z,21.30
2018-08-12T20:50:23.521Z,21.20
2018-08-12T20:55:18.149Z,21.10
2018-08-12T21:00:12.887Z,21.10
2018-08-12T21:05:08.451Z,20.90
2018-08-12T21:10:03.213Z,20.90
2018-08-12T21:14:57.913Z,20.70
2018-08-12T21:19:52.620Z,20.60
2018-08-12T21:24:47.332Z,20.50
2018-08-12T21:29:41.960Z,20.40
2018-08-12T21:34:36.664Z,20.20
2018-08-12T21:39:31.318Z,20.50
2018-08-12T21:44:26.020Z,20.50
2018-08-12T21:49:20.610Z,20.30
2018-08-12T21:54:15.381Z,20.20
2018-08-12T21:59:10.100Z,20.10
2018-08-12T22:04:04.879Z,20.00
2018-08-12T22:08:59.542Z,20.10
2018-08-12T22:13:54.196Z,20.20
2018-08-12T22:18:48.856Z,20.10
2018-08-12T22:23:43.659Z,19.90
2018-08-12T22:28:38.287Z,19.80
2018-08-12T22:33:33.150Z,19.90
2018-08-12T22:38:27.953Z,19.60
2018-08-12T22:43:22.713Z,19.70
2018-08-12T22:48:17.425Z,19.60
2018-08-12T22:53:12.122Z,19.60
2018-08-12T22:58:07.110Z,19.40
2018-08-12T23:03:02.145Z,19.30
2018-08-12T23:08:00.879Z,19.20
2018-08-12T23:12:55.533Z,19.10
2018-08-12T23:17:50.235Z,19.00
2018-08-12T23:22:44.946Z,19.00
2018-08-12T23:27:39.614Z,19.10
2018-08-12T23:32:34.323Z,18.90
2018-08-12T23:37:29.011Z,19.00
2018-08-12T23:42:23.706Z,18.80
2018-08-12T23:47:18.329Z,18.60
2018-08-12T23:52:12.962Z,18.40
2018-08-12T23:57:07.624Z,18.50
